sensor_id;sensor_type;location;lat;lon;timestamp;P1;durP1;ratioP1;P2;durP2;ratioP2
11735;SDS011;5924;51.398;7.088;2023-09-19T00:00:33;10.67;;;2.67;;
11735;SDS011;5924;51.398;7.088;2023-09-19T00:03:00;8.63;;;2.77;;
11735;SDS011;5924;51.398;7.088;2023-09-19T00:05:27;10.33;;;2.10;;
11735;SDS011;5924;51.398;7.088;2023-09-19T00:07:54;13.33;;;2.40;;
11735;SDS011;5924;51.398;7.088;2023-09-19T00:10:23;3.60;;;2.13;;
11735;SDS011;5924;51.398;7.088;2023-09-19T00:12:51;12.57;;;2.60;;
11735;SDS011;5924;51.398;7.088;2023-09-19T00:15:20;4.53;;;2.03;;
11735;SDS011;5924;51.398;7.088;2023-09-19T00:17:48;13.37;;;2.90;;
11735;SDS011;5924;51.398;7.088;2023-09-19T00:20:17;5.80;;;2.23;;
11735;SDS011;5924;51.398;7.088;2023-09-19T00:22:43;2.13;;;1.93;;
11735;SDS011;5924;51.398;7.088;2023-09-19T00:25:09;8.13;;;2.20;;
11735;SDS011;5924;51.398;7.088;2023-09-19T00:27:37;14.17;;;2.40;;
11735;SDS011;5924;51.398;7.088;2023-09-19T00:30:07;6.40;;;2.50;;
11735;SDS011;5924;51.398;7.088;2023-09-19T00:32:44;13.27;;;3.00;;
11735;SDS011;5924;51.398;7.088;2023-09-19T00:35:12;11.20;;;3.77;;
11735;SDS011;5924;51.398;7.088;2023-09-19T00:37:40;9.17;;;2.30;;
11735;SDS011;5924;51.398;7.088;2023-09-19T00:40:06;7.17;;;2.10;;
11735;SDS011;5924;51.398;7.088;2023-09-19T00:42:36;7.50;;;2.57;;
11735;SDS011;5924;51.398;7.088;2023-09-19T00:45:06;7.67;;;2.00;;
11735;SDS011;5924;51.398;7.088;2023-09-19T00:47:35;7.97;;;2.03;;
11735;SDS011;5924;51.398;7.088;2023-09-19T00:50:02;14.10;;;2.37;;
11735;SDS011;5924;51.398;7.088;2023-09-19T00:52:32;7.60;;;2.20;;
11735;SDS011;5924;51.398;7.088;2023-09-19T00:54:58;4.97;;;2.40;;
11735;SDS011;5924;51.398;7.088;2023-09-19T00:57:25;7.40;;;2.00;;
11735;SDS011;5924;51.398;7.088;2023-09-19T00:59:51;15.07;;;2.33;;
11735;SDS011;5924;51.398;7.088;2023-09-19T01:02:19;10.60;;;2.40;;
11735;SDS011;5924;51.398;7.088;2023-09-19T01:04:46;14.97;;;3.43;;
11735;SDS011;5924;51.398;7.088;2023-09-19T01:07:12;8.73;;;2.93;;
11735;SDS011;5924;51.398;7.088;2023-09-19T01:09:40;4.27;;;2.20;;
11735;SDS011;5924;51.398;7.088;2023-09-19T01:12:06;12.80;;;2.50;;
11735;SDS011;5924;51.398;7.088;2023-09-19T01:17:30;4.63;;;2.10;;
11735;SDS011;5924;51.398;7.088;2023-09-19T01:20:21;5.90;;;1.70;;
11735;SDS011;5924;51.398;7.088;2023-09-19T01:23:29;4.90;;;2.20;;
11735;SDS011;5924;51.398;7.088;2023-09-19T01:28:53;4.60;;;2.30;;
11735;SDS011;5924;51.398;7.088;2023-09-19T01:31:31;7.50;;;2.00;;
11735;SDS011;5924;51.398;7.088;2023-09-19T01:34:02;10.10;;;2.80;;
11735;SDS011;5924;51.398;7.088;2023-09-19T01:36:33;4.13;;;2.00;;
11735;SDS011;5924;51.398;7.088;2023-09-19T01:39:04;9.97;;;2.63;;
11735;SDS011;5924;51.398;7.088;2023-09-19T01:42:18;9.43;;;2.40;;
11735;SDS011;5924;51.398;7.088;2023-09-19T01:44:51;8.90;;;2.27;;
11735;SDS011;5924;51.398;7.088;2023-09-19T01:50:44;13.00;;;2.00;;
11735;SDS011;5924;51.398;7.088;2023-09-19T01:53:23;9.93;;;1.90;;
11735;SDS011;5924;51.398;7.088;2023-09-19T01:55:55;9.23;;;1.93;;
11735;SDS011;5924;51.398;7.088;2023-09-19T02:01:08;4.30;;;1.80;;
11735;SDS011;5924;51.398;7.088;2023-09-19T02:03:38;9.93;;;2.43;;
11735;SDS011;5924;51.398;7.088;2023-09-19T02:06:04;11.23;;;2.33;;
11735;SDS011;5924;51.398;7.088;2023-09-19T02:08:36;7.90;;;2.50;;
11735;SDS011;5924;51.398;7.088;2023-09-19T02:11:02;9.40;;;2.17;;
11735;SDS011;5924;51.398;7.088;2023-09-19T02:13:28;14.07;;;2.57;;
11735;SDS011;5924;51.398;7.088;2023-09-19T02:15:56;9.47;;;2.90;;
11735;SDS011;5924;51.398;7.088;2023-09-19T02:18:22;6.60;;;1.77;;
11735;SDS011;5924;51.398;7.088;2023-09-19T02:20:48;11.13;;;2.40;;
11735;SDS011;5924;51.398;7.088;2023-09-19T02:23:14;15.67;;;2.30;;
11735;SDS011;5924;51.398;7.088;2023-09-19T02:25:40;9.03;;;2.03;;
11735;SDS011;5924;51.398;7.088;2023-09-19T02:28:09;5.53;;;2.07;;
11735;SDS011;5924;51.398;7.088;2023-09-19T02:30:36;6.47;;;2.30;;
11735;SDS011;5924;51.398;7.088;2023-09-19T02:33:02;14.23;;;2.73;;
11735;SDS011;5924;51.398;7.088;2023-09-19T02:35:28;6.03;;;2.20;;
11735;SDS011;5924;51.398;7.088;2023-09-19T02:37:58;12.53;;;2.40;;
11735;SDS011;5924;51.398;7.088;2023-09-19T02:40:23;5.87;;;2.17;;
11735;SDS011;5924;51.398;7.088;2023-09-19T02:42:54;12.23;;;2.53;;
11735;SDS011;5924;51.398;7.088;2023-09-19T02:45:21;9.97;;;2.20;;
11735;SDS011;5924;51.398;7.088;2023-09-19T02:47:47;2.40;;;1.90;;
11735;SDS011;5924;51.398;7.088;2023-09-19T02:50:13;11.33;;;4.20;;
11735;SDS011;5924;51.398;7.088;2023-09-19T02:52:42;8.63;;;2.30;;
11735;SDS011;5924;51.398;7.088;2023-09-19T02:55:09;10.27;;;2.80;;
11735;SDS011;5924;51.398;7.088;2023-09-19T02:57:39;4.60;;;1.83;;
11735;SDS011;5924;51.398;7.088;2023-09-19T03:00:08;15.90;;;2.50;;
11735;SDS011;5924;51.398;7.088;2023-09-19T03:02:37;8.13;;;2.30;;
11735;SDS011;5924;51.398;7.088;2023-09-19T03:05:07;7.00;;;2.30;;
11735;SDS011;5924;51.398;7.088;2023-09-19T03:07:33;10.97;;;2.83;;
11735;SDS011;5924;51.398;7.088;2023-09-19T03:09:59;5.23;;;2.10;;
11735;SDS011;5924;51.398;7.088;2023-09-19T03:12:25;6.20;;;2.10;;
11735;SDS011;5924;51.398;7.088;2023-09-19T03:14:51;11.83;;;2.10;;
11735;SDS011;5924;51.398;7.088;2023-09-19T03:17:17;5.90;;;2.40;;
11735;SDS011;5924;51.398;7.088;2023-09-19T03:19:44;11.17;;;2.40;;
11735;SDS011;5924;51.398;7.088;2023-09-19T03:22:12;8.60;;;1.90;;
11735;SDS011;5924;51.398;7.088;2023-09-19T03:24:39;5.77;;;2.00;;
11735;SDS011;5924;51.398;7.088;2023-09-19T03:27:05;6.97;;;2.27;;
11735;SDS011;5924;51.398;7.088;2023-09-19T03:29:30;3.33;;;2.50;;
11735;SDS011;5924;51.398;7.088;2023-09-19T03:31:56;8.37;;;2.83;;
11735;SDS011;5924;51.398;7.088;2023-09-19T03:34:22;9.40;;;1.90;;
11735;SDS011;5924;51.398;7.088;2023-09-19T03:36:47;9.50;;;1.73;;
11735;SDS011;5924;51.398;7.088;2023-09-19T03:39:13;15.90;;;1.90;;
11735;SDS011;5924;51.398;7.088;2023-09-19T03:41:40;9.77;;;2.37;;
11735;SDS011;5924;51.398;7.088;2023-09-19T03:44:06;4.03;;;1.97;;
11735;SDS011;5924;51.398;7.088;2023-09-19T03:46:32;9.43;;;2.40;;
11735;SDS011;5924;51.398;7.088;2023-09-19T03:49:00;14.00;;;2.73;;
11735;SDS011;5924;51.398;7.088;2023-09-19T03:51:26;10.60;;;2.17;;
11735;SDS011;5924;51.398;7.088;2023-09-19T03:53:51;2.70;;;2.00;;
11735;SDS011;5924;51.398;7.088;2023-09-19T03:56:17;9.40;;;3.00;;
11735;SDS011;5924;51.398;7.088;2023-09-19T03:58:43;8.90;;;2.43;;
11735;SDS011;5924;51.398;7.088;2023-09-19T04:01:08;6.20;;;2.00;;
11735;SDS011;5924;51.398;7.088;2023-09-19T04:03:34;9.03;;;2.47;;
11735;SDS011;5924;51.398;7.088;2023-09-19T04:06:10;15.07;;;2.07;;
11735;SDS011;5924;51.398;7.088;2023-09-19T04:08:37;6.00;;;1.53;;
11735;SDS011;5924;51.398;7.088;2023-09-19T04:11:02;7.40;;;2.20;;
11735;SDS011;5924;51.398;7.088;2023-09-19T04:13:28;10.40;;;2.40;;
11735;SDS011;5924;51.398;7.088;2023-09-19T04:15:54;8.73;;;2.50;;
11735;SDS011;5924;51.398;7.088;2023-09-19T04:18:20;14.20;;;2.10;;
11735;SDS011;5924;51.398;7.088;2023-09-19T04:20:51;6.37;;;1.80;;
11735;SDS011;5924;51.398;7.088;2023-09-19T04:23:17;3.23;;;2.20;;
11735;SDS011;5924;51.398;7.088;2023-09-19T04:25:45;6.40;;;2.17;;
11735;SDS011;5924;51.398;7.088;2023-09-19T04:28:10;5.80;;;2.33;;
11735;SDS011;5924;51.398;7.088;2023-09-19T04:30:37;8.07;;;2.17;;
11735;SDS011;5924;51.398;7.088;2023-09-19T04:33:05;7.73;;;1.63;;
11735;SDS011;5924;51.398;7.088;2023-09-19T04:35:31;6.57;;;1.83;;
11735;SDS011;5924;51.398;7.088;2023-09-19T04:37:57;13.23;;;2.57;;
11735;SDS011;5924;51.398;7.088;2023-09-19T04:40:23;7.30;;;2.20;;
11735;SDS011;5924;51.398;7.088;2023-09-19T04:42:54;7.50;;;2.07;;
11735;SDS011;5924;51.398;7.088;2023-09-19T04:45:26;2.40;;;1.90;;
11735;SDS011;5924;51.398;7.088;2023-09-19T04:47:53;5.30;;;2.20;;
11735;SDS011;5924;51.398;7.088;2023-09-19T04:50:19;5.70;;;2.47;;
11735;SDS011;5924;51.398;7.088;2023-09-19T04:52:48;4.33;;;2.20;;
11735;SDS011;5924;51.398;7.088;2023-09-19T04:55:15;6.60;;;2.10;;
11735;SDS011;5924;51.398;7.088;2023-09-19T04:57:45;8.20;;;1.70;;
11735;SDS011;5924;51.398;7.088;2023-09-19T05:00:13;7.30;;;1.97;;
11735;SDS011;5924;51.398;7.088;2023-09-19T05:02:41;3.87;;;2.10;;
11735;SDS011;5924;51.398;7.088;2023-09-19T05:05:07;6.70;;;2.20;;
11735;SDS011;5924;51.398;7.088;2023-09-19T05:07:35;13.17;;;2.43;;
11735;SDS011;5924;51.398;7.088;2023-09-19T05:10:01;6.00;;;1.70;;
11735;SDS011;5924;51.398;7.088;2023-09-19T05:12:30;11.57;;;2.30;;
11735;SDS011;5924;51.398;7.088;2023-09-19T05:14:57;10.93;;;2.03;;
11735;SDS011;5924;51.398;7.088;2023-09-19T05:17:23;11.80;;;2.53;;
11735;SDS011;5924;51.398;7.088;2023-09-19T05:19:49;7.40;;;2.20;;
11735;SDS011;5924;51.398;7.088;2023-09-19T05:22:15;6.07;;;2.60;;
11735;SDS011;5924;51.398;7.088;2023-09-19T05:24:43;9.40;;;2.10;;
11735;SDS011;5924;51.398;7.088;2023-09-19T05:27:12;2.90;;;2.37;;
11735;SDS011;5924;51.398;7.088;2023-09-19T05:29:38;18.47;;;2.97;;
11735;SDS011;5924;51.398;7.088;2023-09-19T05:32:03;19.93;;;3.10;;
11735;SDS011;5924;51.398;7.088;2023-09-19T05:34:30;5.53;;;1.97;;
11735;SDS011;5924;51.398;7.088;2023-09-19T05:36:56;7.60;;;3.20;;
11735;SDS011;5924;51.398;7.088;2023-09-19T05:39:22;4.77;;;1.77;;
11735;SDS011;5924;51.398;7.088;2023-09-19T05:41:48;3.37;;;2.17;;
11735;SDS011;5924;51.398;7.088;2023-09-19T05:44:13;11.63;;;2.33;;
11735;SDS011;5924;51.398;7.088;2023-09-19T05:46:39;5.67;;;2.30;;
11735;SDS011;5924;51.398;7.088;2023-09-19T05:49:05;12.83;;;2.10;;
11735;SDS011;5924;51.398;7.088;2023-09-19T05:51:31;7.13;;;2.07;;
11735;SDS011;5924;51.398;7.088;2023-09-19T05:53:56;6.23;;;2.27;;
11735;SDS011;5924;51.398;7.088;2023-09-19T05:56:22;7.37;;;1.77;;
11735;SDS011;5924;51.398;7.088;2023-09-19T05:58:48;10.90;;;2.70;;
11735;SDS011;5924;51.398;7.088;2023-09-19T06:01:16;3.33;;;2.13;;
11735;SDS011;5924;51.398;7.088;2023-09-19T06:03:43;8.60;;;2.00;;
11735;SDS011;5924;51.398;7.088;2023-09-19T06:06:08;11.30;;;2.70;;
11735;SDS011;5924;51.398;7.088;2023-09-19T06:08:34;12.73;;;2.53;;
11735;SDS011;5924;51.398;7.088;2023-09-19T06:11:00;11.93;;;2.23;;
11735;SDS011;5924;51.398;7.088;2023-09-19T06:13:27;9.53;;;2.20;;
11735;SDS011;5924;51.398;7.088;2023-09-19T06:15:54;13.73;;;2.33;;
11735;SDS011;5924;51.398;7.088;2023-09-19T06:18:24;3.77;;;2.23;;
11735;SDS011;5924;51.398;7.088;2023-09-19T06:20:51;11.30;;;2.23;;
11735;SDS011;5924;51.398;7.088;2023-09-19T06:23:17;17.30;;;2.70;;
11735;SDS011;5924;51.398;7.088;2023-09-19T06:25:45;8.47;;;2.27;;
11735;SDS011;5924;51.398;7.088;2023-09-19T06:28:10;17.10;;;3.27;;
11735;SDS011;5924;51.398;7.088;2023-09-19T06:30:39;11.30;;;2.80;;
11735;SDS011;5924;51.398;7.088;2023-09-19T06:33:05;19.23;;;3.10;;
11735;SDS011;5924;51.398;7.088;2023-09-19T06:35:32;26.63;;;2.47;;
11735;SDS011;5924;51.398;7.088;2023-09-19T06:38:01;6.63;;;2.20;;
11735;SDS011;5924;51.398;7.088;2023-09-19T06:40:28;10.70;;;2.10;;
11735;SDS011;5924;51.398;7.088;2023-09-19T06:42:56;11.43;;;2.60;;
11735;SDS011;5924;51.398;7.088;2023-09-19T06:45:22;10.93;;;1.97;;
11735;SDS011;5924;51.398;7.088;2023-09-19T06:47:48;15.50;;;2.20;;
11735;SDS011;5924;51.398;7.088;2023-09-19T06:50:16;12.10;;;2.10;;
11735;SDS011;5924;51.398;7.088;2023-09-19T06:52:45;4.10;;;1.80;;
11735;SDS011;5924;51.398;7.088;2023-09-19T06:55:18;5.70;;;2.43;;
11735;SDS011;5924;51.398;7.088;2023-09-19T06:57:45;7.43;;;2.00;;
11735;SDS011;5924;51.398;7.088;2023-09-19T07:00:12;4.60;;;2.20;;
11735;SDS011;5924;51.398;7.088;2023-09-19T07:05:21;27.77;;;2.47;;
11735;SDS011;5924;51.398;7.088;2023-09-19T07:07:47;17.73;;;2.67;;
11735;SDS011;5924;51.398;7.088;2023-09-19T07:10:13;11.70;;;2.97;;
11735;SDS011;5924;51.398;7.088;2023-09-19T07:12:39;7.40;;;2.20;;
11735;SDS011;5924;51.398;7.088;2023-09-19T07:15:06;9.93;;;2.43;;
11735;SDS011;5924;51.398;7.088;2023-09-19T07:17:32;12.73;;;2.50;;
11735;SDS011;5924;51.398;7.088;2023-09-19T07:19:58;8.47;;;2.10;;
11735;SDS011;5924;51.398;7.088;2023-09-19T07:22:24;2.73;;;1.83;;
11735;SDS011;5924;51.398;7.088;2023-09-19T07:24:52;12.50;;;2.33;;
11735;SDS011;5924;51.398;7.088;2023-09-19T07:27:17;9.87;;;2.50;;
11735;SDS011;5924;51.398;7.088;2023-09-19T07:29:43;14.93;;;3.40;;
11735;SDS011;5924;51.398;7.088;2023-09-19T07:32:10;9.10;;;2.33;;
11735;SDS011;5924;51.398;7.088;2023-09-19T07:34:36;8.50;;;2.23;;
11735;SDS011;5924;51.398;7.088;2023-09-19T07:37:04;9.30;;;2.43;;
11735;SDS011;5924;51.398;7.088;2023-09-19T07:39:29;12.03;;;2.30;;
11735;SDS011;5924;51.398;7.088;2023-09-19T07:41:55;6.87;;;2.60;;
11735;SDS011;5924;51.398;7.088;2023-09-19T07:44:21;13.50;;;2.00;;
11735;SDS011;5924;51.398;7.088;2023-09-19T07:46:47;22.40;;;2.80;;
11735;SDS011;5924;51.398;7.088;2023-09-19T07:49:16;13.20;;;2.40;;
11735;SDS011;5924;51.398;7.088;2023-09-19T07:51:42;10.07;;;1.93;;
11735;SDS011;5924;51.398;7.088;2023-09-19T07:54:11;13.80;;;3.00;;
11735;SDS011;5924;51.398;7.088;2023-09-19T07:56:38;8.33;;;2.23;;
11735;SDS011;5924;51.398;7.088;2023-09-19T07:59:03;13.70;;;2.67;;
11735;SDS011;5924;51.398;7.088;2023-09-19T08:01:29;5.10;;;1.87;;
11735;SDS011;5924;51.398;7.088;2023-09-19T08:03:55;16.50;;;2.40;;
11735;SDS011;5924;51.398;7.088;2023-09-19T08:06:21;7.93;;;2.50;;
11735;SDS011;5924;51.398;7.088;2023-09-19T08:08:46;8.13;;;2.53;;
11735;SDS011;5924;51.398;7.088;2023-09-19T08:11:12;19.27;;;3.97;;
11735;SDS011;5924;51.398;7.088;2023-09-19T08:13:41;9.47;;;2.70;;
11735;SDS011;5924;51.398;7.088;2023-09-19T08:16:12;7.70;;;2.40;;
11735;SDS011;5924;51.398;7.088;2023-09-19T08:18:38;10.07;;;3.10;;
11735;SDS011;5924;51.398;7.088;2023-09-19T08:21:06;4.13;;;2.13;;
11735;SDS011;5924;51.398;7.088;2023-09-19T08:23:36;3.93;;;2.67;;
11735;SDS011;5924;51.398;7.088;2023-09-19T08:26:03;13.13;;;2.70;;
11735;SDS011;5924;51.398;7.088;2023-09-19T08:28:32;10.27;;;2.47;;
11735;SDS011;5924;51.398;7.088;2023-09-19T08:31:01;6.33;;;1.90;;
11735;SDS011;5924;51.398;7.088;2023-09-19T08:33:31;11.00;;;2.80;;
11735;SDS011;5924;51.398;7.088;2023-09-19T08:35:58;9.63;;;2.40;;
11735;SDS011;5924;51.398;7.088;2023-09-19T08:38:23;10.43;;;2.60;;
11735;SDS011;5924;51.398;7.088;2023-09-19T08:40:50;7.00;;;2.23;;
11735;SDS011;5924;51.398;7.088;2023-09-19T08:43:16;5.47;;;1.93;;
11735;SDS011;5924;51.398;7.088;2023-09-19T08:45:42;7.67;;;1.67;;
11735;SDS011;5924;51.398;7.088;2023-09-19T08:53:27;13.13;;;3.07;;
11735;SDS011;5924;51.398;7.088;2023-09-19T08:55:54;9.13;;;2.67;;
11735;SDS011;5924;51.398;7.088;2023-09-19T08:58:22;10.27;;;2.10;;
11735;SDS011;5924;51.398;7.088;2023-09-19T09:00:54;5.50;;;2.50;;
11735;SDS011;5924;51.398;7.088;2023-09-19T09:03:21;9.73;;;2.60;;
11735;SDS011;5924;51.398;7.088;2023-09-19T09:05:48;7.10;;;2.13;;
11735;SDS011;5924;51.398;7.088;2023-09-19T09:08:15;7.50;;;2.17;;
11735;SDS011;5924;51.398;7.088;2023-09-19T09:10:44;9.30;;;2.03;;
11735;SDS011;5924;51.398;7.088;2023-09-19T09:13:10;6.40;;;2.50;;
11735;SDS011;5924;51.398;7.088;2023-09-19T09:15:39;20.33;;;2.20;;
11735;SDS011;5924;51.398;7.088;2023-09-19T09:18:06;9.30;;;2.43;;
11735;SDS011;5924;51.398;7.088;2023-09-19T09:20:32;9.10;;;2.90;;
11735;SDS011;5924;51.398;7.088;2023-09-19T09:22:57;9.37;;;2.07;;
11735;SDS011;5924;51.398;7.088;2023-09-19T09:25:46;7.67;;;3.00;;
11735;SDS011;5924;51.398;7.088;2023-09-19T09:28:20;11.90;;;2.13;;
11735;SDS011;5924;51.398;7.088;2023-09-19T09:30:47;9.17;;;2.80;;
11735;SDS011;5924;51.398;7.088;2023-09-19T09:33:13;8.83;;;2.37;;
11735;SDS011;5924;51.398;7.088;2023-09-19T09:35:53;7.20;;;2.47;;
11735;SDS011;5924;51.398;7.088;2023-09-19T09:38:26;6.47;;;2.50;;
11735;SDS011;5924;51.398;7.088;2023-09-19T09:40:53;8.73;;;2.60;;
11735;SDS011;5924;51.398;7.088;2023-09-19T09:43:39;7.27;;;2.47;;
11735;SDS011;5924;51.398;7.088;2023-09-19T09:46:17;6.63;;;2.13;;
11735;SDS011;5924;51.398;7.088;2023-09-19T09:48:47;7.00;;;2.33;;
11735;SDS011;5924;51.398;7.088;2023-09-19T09:51:38;13.83;;;2.30;;
11735;SDS011;5924;51.398;7.088;2023-09-19T09:54:18;8.43;;;2.37;;
11735;SDS011;5924;51.398;7.088;2023-09-19T09:56:54;9.13;;;2.07;;
11735;SDS011;5924;51.398;7.088;2023-09-19T09:59:39;10.07;;;2.17;;
11735;SDS011;5924;51.398;7.088;2023-09-19T10:02:27;19.00;;;3.73;;
11735;SDS011;5924;51.398;7.088;2023-09-19T10:04:58;8.67;;;2.20;;
11735;SDS011;5924;51.398;7.088;2023-09-19T10:07:39;11.73;;;2.57;;
11735;SDS011;5924;51.398;7.088;2023-09-19T10:10:07;5.37;;;2.13;;
11735;SDS011;5924;51.398;7.088;2023-09-19T10:12:53;11.53;;;2.27;;
11735;SDS011;5924;51.398;7.088;2023-09-19T10:15:27;7.90;;;2.27;;
11735;SDS011;5924;51.398;7.088;2023-09-19T10:17:56;5.50;;;2.60;;
11735;SDS011;5924;51.398;7.088;2023-09-19T10:20:26;9.60;;;2.63;;
11735;SDS011;5924;51.398;7.088;2023-09-19T10:23:21;7.37;;;2.00;;
11735;SDS011;5924;51.398;7.088;2023-09-19T10:25:48;7.53;;;2.67;;
11735;SDS011;5924;51.398;7.088;2023-09-19T10:28:16;6.53;;;2.47;;
11735;SDS011;5924;51.398;7.088;2023-09-19T10:30:46;6.83;;;2.47;;
11735;SDS011;5924;51.398;7.088;2023-09-19T10:33:14;10.23;;;2.30;;
11735;SDS011;5924;51.398;7.088;2023-09-19T10:35:51;6.93;;;2.67;;
11735;SDS011;5924;51.398;7.088;2023-09-19T10:38:22;6.27;;;2.67;;
11735;SDS011;5924;51.398;7.088;2023-09-19T10:40:53;6.13;;;2.40;;
11735;SDS011;5924;51.398;7.088;2023-09-19T10:43:20;2.93;;;2.70;;
11735;SDS011;5924;51.398;7.088;2023-09-19T10:45:49;6.77;;;2.20;;
11735;SDS011;5924;51.398;7.088;2023-09-19T10:48:17;3.20;;;1.80;;
11735;SDS011;5924;51.398;7.088;2023-09-19T10:53:40;10.37;;;2.30;;
11735;SDS011;5924;51.398;7.088;2023-09-19T10:56:08;6.37;;;2.17;;
11735;SDS011;5924;51.398;7.088;2023-09-19T10:58:42;4.80;;;2.10;;
11735;SDS011;5924;51.398;7.088;2023-09-19T11:01:09;10.30;;;2.80;;
11735;SDS011;5924;51.398;7.088;2023-09-19T11:03:40;2.40;;;1.90;;
11735;SDS011;5924;51.398;7.088;2023-09-19T11:06:14;3.67;;;2.13;;
11735;SDS011;5924;51.398;7.088;2023-09-19T11:08:51;12.17;;;2.50;;
11735;SDS011;5924;51.398;7.088;2023-09-19T11:14:47;6.23;;;2.50;;
11735;SDS011;5924;51.398;7.088;2023-09-19T11:30:38;10.53;;;2.63;;
11735;SDS011;5924;51.398;7.088;2023-09-19T11:33:21;7.23;;;2.33;;
11735;SDS011;5924;51.398;7.088;2023-09-19T11:43:47;9.00;;;2.33;;
11735;SDS011;5924;51.398;7.088;2023-09-19T11:46:16;4.80;;;2.20;;
11735;SDS011;5924;51.398;7.088;2023-09-19T11:48:47;4.67;;;2.77;;
11735;SDS011;5924;51.398;7.088;2023-09-19T11:51:24;6.40;;;2.30;;
11735;SDS011;5924;51.398;7.088;2023-09-19T11:53:57;4.00;;;2.50;;
11735;SDS011;5924;51.398;7.088;2023-09-19T11:56:26;9.80;;;2.60;;
11735;SDS011;5924;51.398;7.088;2023-09-19T11:58:56;4.70;;;2.10;;
11735;SDS011;5924;51.398;7.088;2023-09-19T12:01:31;5.70;;;2.43;;
11735;SDS011;5924;51.398;7.088;2023-09-19T12:03:59;4.50;;;1.77;;
11735;SDS011;5924;51.398;7.088;2023-09-19T12:06:27;10.13;;;2.00;;
11735;SDS011;5924;51.398;7.088;2023-09-19T12:08:54;2.10;;;2.00;;
11735;SDS011;5924;51.398;7.088;2023-09-19T12:11:22;2.80;;;1.93;;
11735;SDS011;5924;51.398;7.088;2023-09-19T12:13:48;2.03;;;1.83;;
11735;SDS011;5924;51.398;7.088;2023-09-19T12:16:19;6.77;;;2.20;;
11735;SDS011;5924;51.398;7.088;2023-09-19T12:18:49;8.63;;;2.00;;
11735;SDS011;5924;51.398;7.088;2023-09-19T12:21:31;3.43;;;2.00;;
11735;SDS011;5924;51.398;7.088;2023-09-19T12:26:44;3.53;;;2.20;;
11735;SDS011;5924;51.398;7.088;2023-09-19T12:31:52;2.13;;;1.90;;
11735;SDS011;5924;51.398;7.088;2023-09-19T12:34:29;6.10;;;1.67;;
11735;SDS011;5924;51.398;7.088;2023-09-19T12:39:50;3.23;;;2.00;;
11735;SDS011;5924;51.398;7.088;2023-09-19T12:42:24;4.80;;;1.90;;
11735;SDS011;5924;51.398;7.088;2023-09-19T12:44:57;4.70;;;1.70;;
11735;SDS011;5924;51.398;7.088;2023-09-19T12:47:26;3.40;;;1.90;;
11735;SDS011;5924;51.398;7.088;2023-09-19T12:52:54;1.70;;;1.50;;
11735;SDS011;5924;51.398;7.088;2023-09-19T12:58:13;2.57;;;1.73;;
11735;SDS011;5924;51.398;7.088;2023-09-19T13:00:43;3.57;;;1.73;;
11735;SDS011;5924;51.398;7.088;2023-09-19T13:05:53;3.97;;;1.90;;
11735;SDS011;5924;51.398;7.088;2023-09-19T13:08:21;3.57;;;1.90;;
11735;SDS011;5924;51.398;7.088;2023-09-19T13:13:27;2.20;;;2.00;;
11735;SDS011;5924;51.398;7.088;2023-09-19T13:15:54;3.50;;;2.10;;
11735;SDS011;5924;51.398;7.088;2023-09-19T13:18:22;2.13;;;1.53;;
11735;SDS011;5924;51.398;7.088;2023-09-19T13:23:37;1.80;;;1.53;;
11735;SDS011;5924;51.398;7.088;2023-09-19T13:26:03;3.40;;;1.40;;
11735;SDS011;5924;51.398;7.088;2023-09-19T13:28:33;4.17;;;1.67;;
11735;SDS011;5924;51.398;7.088;2023-09-19T13:30:59;3.70;;;1.83;;
11735;SDS011;5924;51.398;7.088;2023-09-19T13:33:24;2.83;;;1.50;;
11735;SDS011;5924;51.398;7.088;2023-09-19T13:35:51;2.83;;;1.30;;
11735;SDS011;5924;51.398;7.088;2023-09-19T13:38:18;2.80;;;1.43;;
11735;SDS011;5924;51.398;7.088;2023-09-19T13:40:47;2.30;;;1.47;;
11735;SDS011;5924;51.398;7.088;2023-09-19T13:43:13;1.67;;;1.23;;
11735;SDS011;5924;51.398;7.088;2023-09-19T13:45:38;4.87;;;1.00;;
11735;SDS011;5924;51.398;7.088;2023-09-19T13:48:07;3.83;;;1.57;;
11735;SDS011;5924;51.398;7.088;2023-09-19T13:50:34;1.17;;;1.07;;
11735;SDS011;5924;51.398;7.088;2023-09-19T13:53:01;1.30;;;1.23;;
11735;SDS011;5924;51.398;7.088;2023-09-19T13:55:27;2.87;;;1.47;;
11735;SDS011;5924;51.398;7.088;2023-09-19T13:57:53;3.33;;;1.70;;
11735;SDS011;5924;51.398;7.088;2023-09-19T14:00:21;2.50;;;1.30;;
11735;SDS011;5924;51.398;7.088;2023-09-19T14:02:47;3.13;;;1.17;;
11735;SDS011;5924;51.398;7.088;2023-09-19T14:05:14;6.23;;;1.80;;
11735;SDS011;5924;51.398;7.088;2023-09-19T14:07:44;3.33;;;1.17;;
11735;SDS011;5924;51.398;7.088;2023-09-19T14:10:11;4.00;;;1.23;;
11735;SDS011;5924;51.398;7.088;2023-09-19T14:12:37;3.80;;;1.50;;
11735;SDS011;5924;51.398;7.088;2023-09-19T14:15:05;2.27;;;1.10;;
11735;SDS011;5924;51.398;7.088;2023-09-19T14:17:33;2.40;;;1.20;;
11735;SDS011;5924;51.398;7.088;2023-09-19T14:19:59;1.30;;;1.20;;
11735;SDS011;5924;51.398;7.088;2023-09-19T14:22:24;1.70;;;1.20;;
11735;SDS011;5924;51.398;7.088;2023-09-19T14:24:50;10.43;;;1.77;;
11735;SDS011;5924;51.398;7.088;2023-09-19T14:27:16;3.90;;;0.87;;
11735;SDS011;5924;51.398;7.088;2023-09-19T14:29:42;4.50;;;1.07;;
11735;SDS011;5924;51.398;7.088;2023-09-19T14:32:08;1.27;;;1.20;;
11735;SDS011;5924;51.398;7.088;2023-09-19T14:34:33;6.03;;;2.07;;
11735;SDS011;5924;51.398;7.088;2023-09-19T14:37:01;1.80;;;1.17;;
11735;SDS011;5924;51.398;7.088;2023-09-19T14:39:29;5.37;;;1.50;;
11735;SDS011;5924;51.398;7.088;2023-09-19T14:41:54;3.77;;;1.40;;
11735;SDS011;5924;51.398;7.088;2023-09-19T14:44:20;2.70;;;1.37;;
11735;SDS011;5924;51.398;7.088;2023-09-19T14:46:45;1.40;;;1.30;;
11735;SDS011;5924;51.398;7.088;2023-09-19T14:49:11;3.97;;;1.50;;
11735;SDS011;5924;51.398;7.088;2023-09-19T14:51:37;1.10;;;1.00;;
11735;SDS011;5924;51.398;7.088;2023-09-19T14:54:07;2.30;;;1.00;;
11735;SDS011;5924;51.398;7.088;2023-09-19T14:56:33;2.30;;;1.20;;
11735;SDS011;5924;51.398;7.088;2023-09-19T14:58:59;2.77;;;1.07;;
11735;SDS011;5924;51.398;7.088;2023-09-19T15:01:25;7.13;;;1.20;;
11735;SDS011;5924;51.398;7.088;2023-09-19T15:03:50;2.13;;;1.37;;
11735;SDS011;5924;51.398;7.088;2023-09-19T15:06:16;2.30;;;0.97;;
11735;SDS011;5924;51.398;7.088;2023-09-19T15:08:45;2.67;;;0.90;;
11735;SDS011;5924;51.398;7.088;2023-09-19T15:11:16;2.57;;;1.00;;
11735;SDS011;5924;51.398;7.088;2023-09-19T15:13:42;2.57;;;1.50;;
11735;SDS011;5924;51.398;7.088;2023-09-19T15:16:09;4.33;;;0.97;;
11735;SDS011;5924;51.398;7.088;2023-09-19T15:18:35;1.07;;;0.97;;
11735;SDS011;5924;51.398;7.088;2023-09-19T15:21:06;1.10;;;1.10;;
11735;SDS011;5924;51.398;7.088;2023-09-19T15:23:33;1.13;;;1.03;;
11735;SDS011;5924;51.398;7.088;2023-09-19T15:26:02;1.77;;;0.97;;
11735;SDS011;5924;51.398;7.088;2023-09-19T15:28:33;0.90;;;0.90;;
11735;SDS011;5924;51.398;7.088;2023-09-19T15:33:28;0.90;;;0.90;;
11735;SDS011;5924;51.398;7.088;2023-09-19T15:36:09;4.37;;;0.90;;
11735;SDS011;5924;51.398;7.088;2023-09-19T15:41:31;6.77;;;1.30;;
11735;SDS011;5924;51.398;7.088;2023-09-19T15:43:59;1.13;;;1.03;;
11735;SDS011;5924;51.398;7.088;2023-09-19T15:46:26;2.70;;;0.73;;
11735;SDS011;5924;51.398;7.088;2023-09-19T15:48:53;0.60;;;0.60;;
11735;SDS011;5924;51.398;7.088;2023-09-19T15:51:18;1.47;;;1.17;;
11735;SDS011;5924;51.398;7.088;2023-09-19T15:53:45;5.80;;;1.33;;
11735;SDS011;5924;51.398;7.088;2023-09-19T15:56:13;0.80;;;0.80;;
11735;SDS011;5924;51.398;7.088;2023-09-19T15:58:39;2.60;;;1.40;;
11735;SDS011;5924;51.398;7.088;2023-09-19T16:01:06;1.43;;;1.00;;
11735;SDS011;5924;51.398;7.088;2023-09-19T16:03:38;1.13;;;1.03;;
11735;SDS011;5924;51.398;7.088;2023-09-19T16:06:11;1.73;;;0.77;;
11735;SDS011;5924;51.398;7.088;2023-09-19T16:08:39;3.27;;;0.90;;
11735;SDS011;5924;51.398;7.088;2023-09-19T16:11:09;2.10;;;1.07;;
11735;SDS011;5924;51.398;7.088;2023-09-19T16:13:36;4.80;;;1.20;;
11735;SDS011;5924;51.398;7.088;2023-09-19T16:16:02;2.17;;;1.07;;
11735;SDS011;5924;51.398;7.088;2023-09-19T16:18:28;5.23;;;1.00;;
11735;SDS011;5924;51.398;7.088;2023-09-19T16:21:04;2.77;;;1.10;;